createdAt,value
2019-05-16T00:02:08.282Z,6.70
2019-05-16T00:04:37.767Z,6.70
2019-05-16T00:07:05.254Z,6.60
2019-05-16T00:09:32.696Z,6.60
2019-05-16T00:12:00.299Z,6.50
2019-05-16T00:14:28.223Z,6.50
2019-05-16T00:16:55.773Z,6.50
2019-05-16T00:19:23.229Z,6.50
2019-05-16T00:21:50.653Z,6.40
2019-05-16T00:24:18.660Z,6.30
2019-05-16T00:26:47.996Z,6.30
2019-05-16T00:29:15.615Z,6.30
2019-05-16T00:31:43.045Z,6.30
2019-05-16T00:34:10.495Z,6.20
2019-05-16T00:36:38.329Z,6.20
2019-05-16T00:39:08.221Z,6.10
2019-05-16T00:41:35.283Z,6.10
2019-05-16T00:44:02.869Z,6.10
2019-05-16T00:46:30.567Z,6.00
2019-05-16T00:48:58.939Z,6.00
2019-05-16T00:51:28.647Z,6.00
2019-05-16T00:53:56.096Z,6.00
2019-05-16T00:56:24.262Z,6.00
2019-05-16T00:58:52.893Z,6.00
2019-05-16T01:01:20.396Z,6.00
2019-05-16T01:03:48.310Z,6.00
2019-05-16T01:06:21.927Z,5.90
2019-05-16T01:08:45.713Z,5.90
2019-05-16T01:11:13.434Z,5.90
2019-05-16T01:13:40.867Z,5.80
2019-05-16T01:16:08.772Z,5.70
2019-05-16T01:18:37.959Z,5.70
2019-05-16T01:21:07.707Z,5.70
2019-05-16T01:23:34.882Z,5.60
2019-05-16T01:26:02.357Z,5.60
2019-05-16T01:28:29.821Z,5.60
2019-05-16T01:30:58.034Z,5.50
2019-05-16T01:33:27.918Z,5.50
2019-05-16T01:35:55.093Z,5.50
2019-05-16T01:38:22.546Z,5.50
2019-05-16T01:40:50.019Z,5.40
2019-05-16T01:43:17.852Z,5.40
2019-05-16T01:45:45.634Z,5.30
2019-05-16T01:48:14.846Z,5.40
2019-05-16T01:50:42.635Z,5.30
2019-05-16T01:53:10.111Z,5.30
2019-05-16T01:55:38.162Z,5.30
2019-05-16T01:58:07.873Z,5.20
2019-05-16T02:00:37.990Z,5.20
2019-05-16T02:03:08.084Z,5.20
2019-05-16T02:05:35.066Z,5.20
2019-05-16T02:08:02.528Z,5.10
2019-05-16T02:10:29.986Z,5.10
2019-05-16T02:12:58.145Z,5.10
2019-05-16T02:15:25.997Z,5.00
2019-05-16T02:17:53.453Z,5.00
2019-05-16T02:20:20.978Z,4.90
2019-05-16T02:22:48.410Z,4.90
2019-05-16T02:25:18.346Z,4.80
2019-05-16T02:27:45.785Z,4.90
2019-05-16T02:30:13.818Z,4.90
2019-05-16T02:32:41.832Z,4.80
2019-05-16T02:35:11.894Z,4.80
2019-05-16T02:37:42.079Z,4.80
2019-05-16T02:40:11.909Z,4.80
2019-05-16T02:42:41.541Z,4.70
2019-05-16T02:45:10.979Z,4.70
2019-05-16T02:47:37.450Z,4.70
2019-05-16T02:50:05.229Z,4.60
2019-05-16T02:52:32.740Z,4.60
2019-05-16T02:55:00.899Z,4.60
2019-05-16T02:57:31.350Z,4.60
2019-05-16T03:00:01.618Z,4.70
2019-05-16T03:02:31.249Z,4.70
2019-05-16T03:05:00.653Z,4.70
2019-05-16T03:07:37.622Z,4.80
2019-05-16T03:10:01.166Z,4.80
2019-05-16T03:12:30.781Z,4.80
2019-05-16T03:15:01.864Z,4.80
2019-05-16T03:17:33.234Z,4.80
2019-05-16T03:20:01.903Z,4.80
2019-05-16T03:22:31.522Z,4.90
2019-05-16T03:25:01.119Z,4.90
2019-05-16T03:27:30.525Z,4.90
2019-05-16T03:30:01.362Z,4.90
2019-05-16T03:32:27.134Z,5.00
2019-05-16T03:34:55.496Z,5.00
2019-05-16T03:37:25.166Z,5.00
2019-05-16T03:39:52.974Z,5.10
2019-05-16T03:42:20.665Z,5.10
2019-05-16T03:44:51.084Z,5.10
2019-05-16T03:47:17.585Z,5.10
2019-05-16T03:49:45.041Z,5.10
2019-05-16T03:52:12.887Z,5.10
2019-05-16T03:54:42.021Z,5.20
2019-05-16T03:57:11.554Z,5.20
2019-05-16T03:59:40.812Z,5.20
2019-05-16T04:02:10.823Z,5.20
2019-05-16T04:04:37.745Z,5.30
2019-05-16T04:07:05.175Z,5.30
2019-05-16T04:09:32.804Z,5.30
2019-05-16T04:12:01.855Z,5.40
2019-05-16T04:14:30.985Z,5.40
2019-05-16T04:17:01.302Z,5.40
2019-05-16T04:19:31.390Z,5.50
2019-05-16T04:22:01.402Z,5.60
2019-05-16T04:24:31.415Z,5.70
2019-05-16T04:27:00.768Z,5.80
2019-05-16T04:29:26.876Z,5.80
2019-05-16T04:31:54.380Z,5.90
2019-05-16T04:34:21.834Z,6.00
2019-05-16T04:36:51.532Z,6.10
2019-05-16T04:39:20.865Z,6.20
2019-05-16T04:41:50.867Z,6.20
2019-05-16T04:44:17.668Z,6.30
2019-05-16T04:46:45.068Z,6.40
2019-05-16T04:49:12.515Z,6.50
2019-05-16T04:51:41.381Z,6.50
2019-05-16T04:54:11.475Z,6.60
2019-05-16T04:56:41.254Z,6.70
2019-05-16T04:59:12.992Z,6.70
2019-05-16T05:01:37.299Z,6.80
2019-05-16T05:04:10.596Z,6.80
2019-05-16T05:06:34.094Z,6.90
2019-05-16T05:09:03.436Z,7.00
2019-05-16T05:11:32.105Z,7.10
2019-05-16T05:14:00.991Z,7.30
2019-05-16T05:16:30.653Z,7.40
2019-05-16T05:19:00.345Z,7.50
2019-05-16T05:21:27.445Z,7.50
2019-05-16T05:23:54.929Z,7.60
2019-05-16T05:26:22.361Z,7.70
2019-05-16T05:28:50.764Z,7.80
2019-05-16T05:31:23.895Z,7.90
2019-05-16T05:33:50.538Z,8.00
2019-05-16T05:36:17.264Z,8.10
2019-05-16T05:38:44.726Z,8.30
2019-05-16T05:41:12.164Z,8.40
2019-05-16T05:43:39.808Z,8.50
2019-05-16T05:46:07.575Z,8.60
2019-05-16T05:48:35.021Z,8.70
2019-05-16T05:51:02.485Z,8.70
2019-05-16T05:53:30.294Z,8.80
2019-05-16T05:56:00.521Z,8.80
2019-05-16T05:58:30.500Z,8.90
2019-05-16T06:00:56.663Z,9.00
2019-05-16T06:03:24.207Z,9.10
2019-05-16T06:05:51.814Z,9.30
2019-05-16T06:08:20.109Z,9.40
2019-05-16T06:10:50.102Z,9.50
2019-05-16T06:13:17.289Z,9.70
2019-05-16T06:15:44.773Z,9.80
2019-05-16T06:18:12.218Z,9.90
2019-05-16T06:20:40.117Z,10.00
2019-05-16T06:23:07.774Z,10.00
2019-05-16T06:25:35.227Z,10.00
2019-05-16T06:28:02.752Z,10.10
2019-05-16T06:30:30.609Z,10.20
2019-05-16T06:32:59.690Z,10.30
2019-05-16T06:35:29.743Z,10.50
2019-05-16T06:37:56.731Z,10.60
2019-05-16T06:40:24.153Z,10.90
2019-05-16T06:42:51.600Z,11.00
2019-05-16T06:45:20.478Z,11.20
2019-05-16T06:47:50.220Z,11.40
2019-05-16T06:50:17.581Z,11.60
2019-05-16T06:52:45.901Z,11.70
2019-05-16T06:55:13.698Z,11.90
2019-05-16T06:57:41.168Z,12.00
2019-05-16T07:00:10.878Z,12.10
2019-05-16T07:02:40.744Z,12.30
2019-05-16T07:05:10.016Z,12.50
2019-05-16T07:07:37.494Z,12.60
2019-05-16T07:10:05.171Z,12.70
2019-05-16T07:12:34.075Z,12.80
2019-05-16T07:15:02.364Z,12.90
2019-05-16T07:17:30.643Z,13.10
2019-05-16T07:20:00.547Z,13.30
2019-05-16T07:22:27.671Z,13.10
2019-05-16T07:24:59.741Z,13.20
2019-05-16T07:27:26.974Z,13.30
2019-05-16T07:29:57.669Z,13.40
2019-05-16T07:32:23.814Z,13.40
2019-05-16T07:34:51.297Z,13.60
2019-05-16T07:37:20.772Z,13.70
2019-05-16T07:39:50.882Z,13.80
2019-05-16T07:42:19.949Z,13.90
2019-05-16T07:44:46.914Z,14.00
2019-05-16T07:47:14.310Z,14.00
2019-05-16T07:49:41.799Z,14.20
2019-05-16T07:52:09.915Z,14.40
2019-05-16T07:54:40.167Z,14.60
2019-05-16T07:57:16.198Z,14.90
2019-05-16T07:59:37.299Z,15.10
2019-05-16T08:02:04.734Z,15.40
2019-05-16T08:04:32.217Z,15.70
2019-05-16T08:07:00.905Z,15.80
2019-05-16T08:09:30.454Z,15.90
2019-05-16T08:11:57.731Z,16.10
2019-05-16T08:14:25.153Z,16.40
2019-05-16T08:16:52.744Z,16.70
2019-05-16T08:19:24.909Z,17.00
2019-05-16T08:21:52.297Z,17.30
2019-05-16T08:24:20.542Z,17.40
2019-05-16T08:26:50.539Z,17.40
2019-05-16T08:29:17.652Z,17.60
2019-05-16T08:31:45.185Z,17.20
2019-05-16T08:34:12.638Z,17.30
2019-05-16T08:36:42.314Z,17.00
2019-05-16T08:39:11.061Z,17.30
2019-05-16T08:41:42.136Z,17.80
2019-05-16T08:44:12.202Z,17.70
2019-05-16T08:46:41.669Z,17.10
2019-05-16T08:49:07.259Z,17.00
2019-05-16T08:51:34.772Z,17.10
2019-05-16T08:54:02.625Z,17.30
2019-05-16T08:56:31.675Z,17.60
2019-05-16T08:59:02.818Z,17.80
2019-05-16T09:01:34.006Z,18.20
2019-05-16T09:04:01.384Z,18.50
2019-05-16T09:06:31.650Z,19.00
2019-05-16T09:09:02.732Z,19.40
2019-05-16T09:11:35.781Z,19.20
2019-05-16T09:13:57.258Z,18.90
2019-05-16T09:16:27.493Z,18.60
2019-05-16T09:18:57.557Z,18.40
2019-05-16T09:21:27.139Z,17.80
2019-05-16T09:23:53.973Z,17.70
2019-05-16T09:26:21.408Z,17.60
2019-05-16T09:28:48.827Z,17.50
2019-05-16T09:31:17.871Z,17.80
2019-05-16T09:33:47.365Z,17.90
2019-05-16T09:36:17.454Z,17.90
2019-05-16T09:38:48.053Z,17.80
2019-05-16T09:41:16.773Z,17.70
2019-05-16T09:43:43.601Z,17.80
2019-05-16T09:46:11.027Z,17.90
2019-05-16T09:48:38.657Z,17.80
2019-05-16T09:51:06.639Z,18.20
2019-05-16T09:53:36.467Z,18.50
2019-05-16T09:56:03.993Z,18.70
2019-05-16T09:58:31.409Z,19.10
2019-05-16T10:00:58.832Z,18.80
2019-05-16T10:03:27.134Z,18.60
2019-05-16T10:05:57.183Z,18.60
2019-05-16T10:08:26.548Z,19.20
2019-05-16T10:10:53.651Z,20.10
2019-05-16T10:13:21.233Z,20.60
2019-05-16T10:15:48.709Z,20.60
2019-05-16T10:18:17.701Z,20.60
2019-05-16T10:20:45.138Z,20.70
2019-05-16T10:23:14.668Z,20.70
2019-05-16T10:25:42.265Z,20.70
2019-05-16T10:28:09.997Z,20.90
2019-05-16T10:30:40.151Z,21.20
2019-05-16T10:33:08.755Z,21.30
2019-05-16T10:35:37.339Z,21.20
2019-05-16T10:38:05.186Z,21.10
2019-05-16T10:40:32.680Z,21.30
2019-05-16T10:43:00.133Z,21.50
2019-05-16T10:45:28.696Z,21.80
2019-05-16T10:47:56.170Z,22.20
2019-05-16T10:50:23.881Z,22.50
2019-05-16T10:53:13.297Z,23.30
2019-05-16T10:55:21.042Z,23.60
2019-05-16T10:57:49.999Z,24.10
2019-05-16T11:00:39.596Z,24.70
2019-05-16T11:02:47.983Z,24.90
2019-05-16T11:05:28.730Z,25.00
2019-05-16T11:07:47.935Z,25.20
2019-05-16T11:10:15.436Z,25.20
2019-05-16T11:12:50.694Z,25.70
2019-05-16T11:15:13.992Z,25.90
2019-05-16T11:17:41.545Z,25.90
2019-05-16T11:20:09.533Z,26.00
2019-05-16T11:22:37.293Z,25.70
2019-05-16T11:25:20.304Z,25.90
2019-05-16T11:27:34.317Z,25.20
2019-05-16T11:30:01.756Z,24.30
2019-05-16T11:32:29.202Z,24.10
2019-05-16T11:34:56.721Z,23.50
2019-05-16T11:37:24.476Z,23.10
2019-05-16T11:39:52.036Z,23.30
2019-05-16T11:42:19.530Z,23.80
2019-05-16T11:44:47.885Z,24.20
2019-05-16T11:47:16.601Z,24.60
2019-05-16T11:49:44.498Z,24.90
2019-05-16T11:52:11.970Z,24.80
2019-05-16T11:54:39.411Z,24.80
2019-05-16T11:57:07.232Z,24.70
2019-05-16T11:59:37.319Z,24.50
2019-05-16T12:02:05.076Z,24.40
2019-05-16T12:04:32.633Z,24.40
2019-05-16T12:07:00.153Z,24.20
2019-05-16T12:09:33.347Z,23.90
2019-05-16T12:12:03.829Z,23.90
2019-05-16T12:14:27.339Z,23.90
2019-05-16T12:16:56.963Z,24.00
2019-05-16T12:19:24.218Z,24.00
2019-05-16T12:22:07.048Z,24.10
2019-05-16T12:24:38.738Z,24.20
2019-05-16T12:27:04.511Z,24.20
2019-05-16T12:29:32.026Z,23.90
2019-05-16T12:32:02.898Z,23.80
2019-05-16T12:34:29.910Z,23.80
2019-05-16T12:36:57.346Z,23.90
2019-05-16T12:39:26.818Z,24.00
2019-05-16T12:41:58.516Z,23.90
2019-05-16T12:44:23.597Z,24.10
2019-05-16T12:46:51.017Z,24.20
2019-05-16T12:49:18.638Z,24.00
2019-05-16T12:51:46.578Z,23.90
2019-05-16T12:54:17.852Z,23.80
2019-05-16T12:56:43.683Z,23.40
2019-05-16T12:59:11.210Z,23.10
2019-05-16T13:01:39.063Z,22.70
2019-05-16T13:04:07.567Z,22.50
2019-05-16T13:06:37.071Z,22.20
2019-05-16T13:09:07.038Z,22.00
2019-05-16T13:11:34.646Z,21.90
2019-05-16T13:14:06.992Z,21.60
2019-05-16T13:16:31.964Z,21.40
2019-05-16T13:18:59.493Z,21.30
2019-05-16T13:21:27.568Z,21.10
2019-05-16T13:23:57.575Z,21.10
2019-05-16T13:26:24.754Z,21.00
2019-05-16T13:28:52.208Z,20.90
2019-05-16T13:31:19.622Z,21.00
2019-05-16T13:33:47.089Z,21.00
2019-05-16T13:36:17.079Z,21.10
2019-05-16T13:38:44.176Z,21.20
2019-05-16T13:41:11.663Z,21.30
2019-05-16T13:43:40.432Z,21.50
2019-05-16T13:46:07.924Z,21.50
2019-05-16T13:48:37.674Z,21.60
2019-05-16T13:51:13.803Z,21.60
2019-05-16T13:53:36.847Z,21.60
2019-05-16T13:56:07.091Z,21.50
2019-05-16T13:58:33.151Z,21.50
2019-05-16T14:01:00.635Z,21.50
2019-05-16T14:03:28.164Z,21.50
2019-05-16T14:05:58.254Z,21.30
2019-05-16T14:08:26.819Z,21.20
2019-05-16T14:11:00.759Z,20.90
2019-05-16T14:13:24.024Z,20.50
2019-05-16T14:15:51.575Z,20.10
2019-05-16T14:18:19.051Z,19.90
2019-05-16T14:20:46.787Z,19.70
2019-05-16T14:23:16.983Z,19.70
2019-05-16T14:25:43.873Z,19.70
2019-05-16T14:28:11.352Z,19.60
2019-05-16T14:30:38.833Z,19.60
2019-05-16T14:33:13.466Z,19.60
2019-05-16T14:35:37.661Z,19.60
2019-05-16T14:38:05.166Z,19.60
2019-05-16T14:40:32.773Z,19.60
2019-05-16T14:43:00.268Z,19.60
2019-05-16T14:45:27.698Z,19.60
2019-05-16T14:47:57.673Z,19.60
2019-05-16T14:50:27.342Z,19.50
2019-05-16T14:52:56.539Z,19.50
2019-05-16T14:55:23.462Z,19.50
2019-05-16T14:57:51.036Z,19.50
2019-05-16T15:00:19.041Z,19.60
2019-05-16T15:02:48.031Z,19.70
2019-05-16T15:05:16.138Z,19.70
2019-05-16T15:07:43.788Z,19.60
2019-05-16T15:10:11.356Z,19.60
2019-05-16T15:12:39.913Z,19.40
2019-05-16T15:15:20.278Z,19.40
2019-05-16T15:17:38.045Z,19.30
2019-05-16T15:20:06.751Z,19.30
2019-05-16T15:22:34.545Z,19.30
2019-05-16T15:25:01.990Z,19.30
2019-05-16T15:27:29.675Z,19.40
2019-05-16T15:29:57.701Z,19.20
2019-05-16T15:32:28.243Z,19.10
2019-05-16T15:34:57.169Z,19.00
2019-05-16T15:37:24.413Z,18.90
2019-05-16T15:39:54.183Z,18.70
2019-05-16T15:42:21.545Z,18.60
2019-05-16T15:44:49.114Z,18.60
2019-05-16T15:47:17.587Z,18.40
2019-05-16T15:49:47.755Z,18.40
2019-05-16T15:52:16.750Z,18.30
2019-05-16T15:54:45.388Z,18.30
2019-05-16T15:57:12.985Z,18.20
2019-05-16T15:59:40.489Z,18.10
2019-05-16T16:02:07.920Z,18.00
2019-05-16T16:04:37.391Z,17.90
2019-05-16T16:07:07.635Z,17.90
2019-05-16T16:09:37.796Z,17.90
2019-05-16T16:12:08.024Z,17.80
2019-05-16T16:14:36.633Z,17.80
2019-05-16T16:17:03.727Z,17.60
2019-05-16T16:19:31.328Z,17.60
2019-05-16T16:21:58.748Z,17.60
2019-05-16T16:24:27.888Z,17.40
2019-05-16T16:26:56.594Z,17.40
2019-05-16T16:29:24.272Z,17.40
2019-05-16T16:31:51.753Z,17.40
2019-05-16T16:34:19.277Z,17.30
2019-05-16T16:36:47.607Z,17.20
2019-05-16T16:39:15.281Z,17.20
2019-05-16T16:41:42.729Z,17.20
2019-05-16T16:44:10.272Z,17.20
2019-05-16T16:46:37.777Z,17.20
2019-05-16T16:49:07.342Z,17.30
2019-05-16T16:51:37.255Z,17.30
2019-05-16T16:54:04.218Z,17.20
2019-05-16T16:56:31.891Z,17.20
2019-05-16T16:58:59.433Z,17.20
2019-05-16T17:01:27.298Z,17.10
2019-05-16T17:03:57.420Z,17.00
2019-05-16T17:06:27.056Z,17.00
2019-05-16T17:08:56.615Z,17.00
2019-05-16T17:11:23.203Z,17.00
2019-05-16T17:13:50.763Z,16.90
2019-05-16T17:16:25.667Z,16.90
2019-05-16T17:18:48.146Z,16.80
2019-05-16T17:21:18.281Z,16.70
2019-05-16T17:23:46.573Z,16.60
2019-05-16T17:26:14.449Z,16.50
2019-05-16T17:28:42.074Z,16.40
2019-05-16T17:31:09.662Z,16.30
2019-05-16T17:33:38.249Z,16.20
2019-05-16T17:36:09.179Z,16.10
2019-05-16T17:38:37.117Z,16.00
2019-05-16T17:41:07.747Z,16.00
2019-05-16T17:43:36.320Z,16.00
2019-05-16T17:46:06.819Z,15.90
2019-05-16T17:48:33.881Z,15.90
2019-05-16T17:51:01.389Z,15.80
2019-05-16T17:53:29.129Z,15.80
2019-05-16T17:55:57.365Z,15.80
2019-05-16T17:58:26.991Z,15.70
2019-05-16T18:00:57.695Z,15.60
2019-05-16T18:03:23.867Z,15.60
2019-05-16T18:05:51.449Z,15.50
2019-05-16T18:08:19.087Z,15.50
2019-05-16T18:10:47.131Z,15.50
2019-05-16T18:13:15.083Z,15.40
2019-05-16T18:15:42.522Z,15.50
2019-05-16T18:18:10.310Z,15.40
2019-05-16T18:20:37.916Z,15.40
2019-05-16T18:23:07.136Z,15.40
2019-05-16T18:25:36.439Z,15.40
2019-05-16T18:28:07.826Z,15.30
2019-05-16T18:30:36.654Z,15.30
2019-05-16T18:33:06.939Z,15.30
2019-05-16T18:35:33.761Z,15.30
2019-05-16T18:38:02.481Z,15.20
2019-05-16T18:40:30.038Z,15.20
2019-05-16T18:42:57.577Z,15.10
2019-05-16T18:45:27.000Z,15.10
2019-05-16T18:47:56.300Z,15.00
2019-05-16T18:50:26.467Z,15.00
2019-05-16T18:52:53.666Z,14.90
2019-05-16T18:55:21.153Z,14.80
2019-05-16T18:57:48.802Z,14.80
2019-05-16T19:00:17.828Z,14.80
2019-05-16T19:02:47.685Z,14.70
2019-05-16T19:05:17.206Z,14.60
2019-05-16T19:07:44.674Z,14.50
2019-05-16T19:10:12.449Z,14.50
2019-05-16T19:12:39.975Z,14.40
2019-05-16T19:15:08.255Z,14.30
2019-05-16T19:17:36.448Z,14.20
2019-05-16T19:20:06.683Z,14.10
2019-05-16T19:22:36.955Z,14.10
2019-05-16T19:25:06.770Z,14.00
2019-05-16T19:27:33.849Z,13.90
2019-05-16T19:30:01.447Z,13.80
2019-05-16T19:32:29.091Z,13.80
2019-05-16T19:34:57.434Z,13.60
2019-05-16T19:37:25.129Z,13.50
2019-05-16T19:39:52.691Z,13.30
2019-05-16T19:42:20.412Z,13.10
2019-05-16T19:44:48.023Z,12.90
2019-05-16T19:47:15.440Z,12.70
2019-05-16T19:49:43.114Z,12.60
2019-05-16T19:52:10.812Z,12.50
2019-05-16T19:54:38.463Z,12.40
2019-05-16T19:57:07.291Z,12.40
2019-05-16T19:59:36.698Z,12.30
2019-05-16T20:02:04.407Z,12.10
2019-05-16T20:04:31.879Z,12.10
2019-05-16T20:06:59.444Z,12.00
2019-05-16T20:09:30.080Z,11.90
2019-05-16T20:11:56.875Z,11.80
2019-05-16T20:14:24.671Z,11.70
2019-05-16T20:16:52.337Z,11.60
2019-05-16T20:19:19.976Z,11.50
2019-05-16T20:21:47.755Z,11.50
2019-05-16T20:24:16.726Z,11.40
2019-05-16T20:26:46.431Z,11.30
2019-05-16T20:29:16.898Z,11.30
2019-05-16T20:31:43.626Z,11.20
2019-05-16T20:34:11.187Z,11.20
2019-05-16T20:36:38.710Z,11.20
2019-05-16T20:39:08.538Z,11.10
2019-05-16T20:41:36.832Z,11.20
2019-05-16T20:44:06.628Z,11.10
2019-05-16T20:46:34.400Z,11.20
2019-05-16T20:49:01.971Z,11.20
2019-05-16T20:51:29.453Z,11.30
2019-05-16T20:53:57.805Z,11.30
2019-05-16T20:56:26.544Z,11.30
2019-05-16T20:58:54.138Z,11.30
2019-05-16T21:01:21.597Z,11.40
2019-05-16T21:03:49.144Z,11.40
2019-05-16T21:06:17.085Z,11.40
2019-05-16T21:08:58.930Z,11.50
2019-05-16T21:11:26.455Z,11.50
2019-05-16T21:13:56.084Z,11.50
2019-05-16T21:16:23.397Z,11.50
2019-05-16T21:18:50.915Z,11.50
2019-05-16T21:21:19.721Z,11.60
2019-05-16T21:23:47.229Z,11.60
2019-05-16T21:26:14.810Z,11.60
2019-05-16T21:28:42.357Z,11.70
2019-05-16T21:31:10.369Z,11.60
2019-05-16T21:33:37.885Z,11.60
2019-05-16T21:36:07.191Z,11.60
2019-05-16T21:38:36.490Z,11.60
2019-05-16T21:41:04.164Z,11.60
2019-05-16T21:43:31.725Z,11.60
2019-05-16T21:45:59.311Z,11.50
2019-05-16T21:48:27.657Z,11.40
2019-05-16T21:50:56.992Z,11.40
2019-05-16T21:53:29.659Z,11.40
2019-05-16T21:55:56.268Z,11.30
2019-05-16T21:58:23.461Z,11.30
2019-05-16T22:00:56.701Z,11.20
2019-05-16T22:03:26.824Z,11.10
2019-05-16T22:05:57.310Z,11.10
2019-05-16T22:08:23.568Z,11.10
2019-05-16T22:10:51.200Z,11.00
2019-05-16T22:13:19.889Z,11.00
2019-05-16T22:15:47.387Z,11.00
2019-05-16T22:18:16.564Z,11.00
2019-05-16T22:20:44.308Z,10.90
2019-05-16T22:23:12.109Z,10.90
2019-05-16T22:25:39.580Z,10.90
2019-05-16T22:28:07.349Z,10.80
2019-05-16T22:30:36.530Z,10.80
2019-05-16T22:33:08.867Z,10.80
2019-05-16T22:35:34.791Z,10.70
2019-05-16T22:38:02.321Z,10.60
2019-05-16T22:40:29.841Z,10.60
2019-05-16T22:42:57.685Z,10.50
2019-05-16T22:45:27.106Z,10.50
2019-05-16T22:47:54.820Z,10.50
2019-05-16T22:50:22.443Z,10.40
2019-05-16T22:52:49.896Z,10.40
2019-05-16T22:55:17.666Z,10.30
2019-05-16T22:57:47.272Z,10.30
2019-05-16T23:00:19.393Z,10.20
2019-05-16T23:02:46.821Z,10.20
2019-05-16T23:05:16.656Z,10.10
2019-05-16T23:07:43.885Z,10.10
2019-05-16T23:10:11.910Z,10.10
2019-05-16T23:12:42.928Z,10.00
2019-05-16T23:15:12.289Z,10.00
2019-05-16T23:17:39.746Z,9.90
2019-05-16T23:20:07.183Z,9.90
2019-05-16T23:22:36.782Z,9.90
2019-05-16T23:25:06.379Z,9.90
2019-05-16T23:27:33.553Z,9.80
2019-05-16T23:30:00.985Z,9.80
2019-05-16T23:32:28.551Z,9.80
2019-05-16T23:34:57.248Z,9.70
2019-05-16T23:37:27.285Z,9.70
2019-05-16T23:39:54.251Z,9.60
2019-05-16T23:42:21.879Z,9.60
2019-05-16T23:44:49.333Z,9.50
2019-05-16T23:47:16.880Z,9.50
2019-05-16T23:49:44.320Z,9.50
2019-05-16T23:52:11.767Z,9.40
2019-05-16T23:54:39.266Z,9.40
2019-05-16T23:57:06.820Z,9.40
2019-05-16T23:59:36.705Z,9.40
